Time;durP1;ratioP1;P1;durP2;ratioP2;P2;SDS_P1;SDS_P2;PMS_P1;PMS_P2;Temp;Humidity;BMP_temperature;BMP_pressure;BME280_temperature;BME280_humidity;BME280_pressure;Samples;Min_cycle;Max_cycle;Signal;HPM_P1;HPM_P2
2022/11/24 00:02:45;;;;;;;13.07;6.93;;;6.50;99.90;;;4.18;100.00;98970.22;10618508;27;20064;-81
2022/11/24 00:07:48;;;;;;;14.63;7.10;;;6.50;99.90;;;4.17;100.00;98973.84;10596432;27;20051;-81
2022/11/24 00:12:51;;;;;;;10.30;5.87;;;6.50;99.90;;;4.15;100.00;98981.88;10593323;27;20059;-81
2022/11/24 00:17:55;;;;;;;12.77;6.53;;;6.50;99.90;;;4.15;100.00;98978.44;10630954;27;20095;-81
2022/11/24 00:22:58;;;;;;;10.40;5.83;;;6.50;99.90;;;4.14;100.00;98985.50;10579007;27;20063;-81
2022/11/24 00:28:01;;;;;;;15.87;7.87;;;6.50;99.90;;;4.15;100.00;98981.06;10569689;28;20060;-81
2022/11/24 00:33:05;;;;;;;14.07;7.43;;;6.50;99.90;;;4.15;100.00;98991.59;10581157;27;20056;-81
2022/11/24 00:38:08;;;;;;;15.87;7.37;;;6.50;99.90;;;4.15;100.00;99000.28;10554454;27;20182;-80
2022/11/24 00:43:11;;;;;;;15.40;7.17;;;6.50;99.90;;;4.14;100.00;99003.91;10591461;27;20064;-80
2022/11/24 00:48:14;;;;;;;22.33;9.80;;;6.50;99.90;;;4.11;100.00;99013.91;10550252;28;20063;-80
2022/11/24 00:53:17;;;;;;;22.83;10.87;;;6.40;99.90;;;4.09;100.00;99021.94;10576028;27;20116;-80
2022/11/24 00:58:22;;;;;;;21.80;9.30;;;6.30;99.90;;;4.07;100.00;99025.69;10585427;28;20545;-80
2022/11/24 01:03:24;;;;;;;22.40;10.07;;;6.40;99.90;;;4.07;100.00;99016.00;10560806;27;20059;-80
2022/11/24 01:08:27;;;;;;;14.70;7.63;;;6.40;99.90;;;4.08;100.00;99016.81;10594131;27;20533;-80
2022/11/24 01:13:30;;;;;;;24.20;10.13;;;6.40;99.90;;;4.09;100.00;99019.31;10591798;27;20134;-80
2022/11/24 01:18:33;;;;;;;21.37;8.73;;;6.40;99.90;;;4.12;100.00;99015.53;10564609;28;20198;-80
2022/11/24 01:23:36;;;;;;;16.77;8.37;;;6.40;99.90;;;4.14;100.00;99018.84;10572395;27;20056;-80
2022/11/24 01:28:39;;;;;;;25.20;9.60;;;6.40;99.90;;;4.15;100.00;99026.59;10592776;27;20087;-80
2022/11/24 01:33:49;;;;;;;25.33;9.90;;;6.50;99.90;;;4.13;100.00;99019.81;10588801;27;20055;-80
2022/11/24 01:38:52;;;;;;;23.40;8.77;;;6.40;99.90;;;4.12;100.00;99029.50;10600028;27;20103;-80
2022/11/24 01:43:56;;;;;;;23.67;9.37;;;6.40;99.90;;;4.13;100.00;99032.97;10610014;27;20521;-80
2022/11/24 01:49:08;;;;;;;27.17;9.70;;;6.40;99.90;;;4.11;100.00;99024.41;10565839;28;20064;-81
2022/11/24 01:54:34;;;;;;;27.37;11.00;;;6.40;99.90;;;4.10;100.00;99030.66;10610636;27;20059;-80
2022/11/24 01:59:37;;;;;;;35.07;13.47;;;6.40;99.90;;;4.07;100.00;99033.59;10561320;27;20052;-81
2022/11/24 02:04:41;;;;;;;31.50;13.10;;;6.40;99.90;;;4.04;100.00;99032.09;10579666;27;20055;-80
2022/11/24 02:09:51;;;;;;;29.70;13.90;;;6.30;99.90;;;4.01;100.00;99024.50;10589104;27;20115;-81
2022/11/24 02:14:55;;;;;;;39.20;15.93;;;6.30;99.90;;;3.99;100.00;99029.94;10625558;27;20055;-81
2022/11/24 02:20:03;;;;;;;33.50;14.53;;;6.30;99.90;;;3.98;100.00;99036.16;10593578;27;20063;-81
2022/11/24 02:25:57;;;;;;;42.07;17.23;;;6.20;99.90;;;3.96;100.00;99032.88;10567807;27;20060;-81
2022/11/24 02:31:01;;;;;;;32.63;15.37;;;6.20;99.90;;;3.97;100.00;99034.53;10573008;27;20063;-81
2022/11/24 02:36:04;;;;;;;37.97;16.30;;;6.20;99.90;;;3.96;100.00;99039.94;10591468;27;20060;-81
2022/11/24 02:41:13;;;;;;;47.47;18.27;;;6.30;99.90;;;3.93;100.00;99033.16;10588911;27;20060;-81
2022/11/24 02:46:16;;;;;;;37.10;17.07;;;6.20;99.90;;;3.93;100.00;99035.81;10588427;27;20051;-80
2022/11/24 02:51:19;;;;;;;41.30;16.40;;;6.20;99.90;;;3.93;100.00;99029.72;10590801;27;20055;-80
2022/11/24 02:56:24;;;;;;;38.40;16.83;;;6.20;99.90;;;3.90;100.00;99035.28;10634688;27;20083;-80
2022/11/24 03:01:27;;;;;;;37.43;17.13;;;6.20;99.90;;;3.86;100.00;99032.16;10607495;27;20580;-80
2022/11/24 03:06:30;;;;;;;43.23;17.73;;;6.10;99.90;;;3.81;100.00;99039.66;10591069;27;20055;-80
2022/11/24 03:11:33;;;;;;;38.20;17.73;;;6.10;99.90;;;3.76;100.00;99052.41;10598209;27;20063;-80
2022/11/24 03:16:36;;;;;;;47.03;20.10;;;6.00;99.90;;;3.68;100.00;99036.59;10591737;27;20105;-80
2022/11/24 03:21:39;;;;;;;44.23;19.10;;;5.90;99.90;;;3.61;100.00;99048.69;10596201;27;20469;-80
2022/11/24 03:26:41;;;;;;;47.60;19.30;;;5.80;99.90;;;3.58;100.00;99055.06;10587255;27;20056;-80
2022/11/24 03:31:45;;;;;;;46.43;19.43;;;5.80;99.90;;;3.54;100.00;99050.25;10610519;27;20082;-80
2022/11/24 03:36:47;;;;;;;40.23;16.93;;;5.80;99.90;;;3.53;100.00;99059.94;10574058;28;20060;-80
2022/11/24 03:41:50;;;;;;;41.00;17.90;;;5.80;99.90;;;3.49;100.00;99064.69;10595302;27;20134;-80
2022/11/24 03:46:53;;;;;;;41.73;19.10;;;5.70;99.90;;;3.45;100.00;99073.84;10571917;27;20062;-80
2022/11/24 03:51:56;;;;;;;40.80;17.83;;;5.70;99.90;;;3.42;100.00;99070.69;10612089;27;20059;-80
2022/11/24 03:56:59;;;;;;;42.30;19.00;;;5.70;99.90;;;3.37;100.00;99070.31;10571602;27;20060;-80
2022/11/24 04:02:02;;;;;;;39.70;19.50;;;5.60;99.90;;;3.31;100.00;99074.38;10598790;27;20055;-80
2022/11/24 04:07:05;;;;;;;43.87;20.93;;;5.50;99.90;;;3.25;100.00;99071.50;10571771;28;20729;-81
2022/11/24 04:17:30;;;;;;;53.50;21.05;;;5.40;99.90;;;3.18;100.00;99087.84;10600309;27;20060;-81
2022/11/24 04:22:34;;;;;;;42.47;20.23;;;5.40;99.90;;;3.12;100.00;99082.34;10611134;27;20066;-81
2022/11/24 04:27:38;;;;;;;52.97;22.70;;;5.40;99.90;;;3.09;100.00;99093.16;10552379;28;20424;-81
2022/11/24 04:32:41;;;;;;;60.20;24.07;;;5.30;99.90;;;3.03;100.00;99099.00;10575862;27;20117;-81
2022/11/24 04:37:43;;;;;;;59.87;24.97;;;5.30;99.90;;;3.02;100.00;99102.59;10625793;27;20055;-81
2022/11/24 04:42:54;;;;;;;58.93;26.50;;;5.20;99.90;;;2.97;100.00;99102.19;10606621;27;20519;-81
2022/11/24 04:47:57;;;;;;;64.47;26.57;;;5.20;99.90;;;2.91;100.00;99112.31;10583149;27;20068;-81
2022/11/24 04:53:00;;;;;;;65.47;25.80;;;5.20;99.90;;;2.86;100.00;99125.03;10595132;27;20156;-81
2022/11/24 04:58:03;;;;;;;73.20;26.53;;;5.10;99.90;;;2.78;100.00;99126.72;10607255;27;20056;-81
2022/11/24 05:03:06;;;;;;;63.37;25.43;;;5.10;99.90;;;2.70;100.00;99135.34;10576543;27;20074;-81
2022/11/24 05:08:09;;;;;;;70.10;26.77;;;5.00;99.90;;;2.64;100.00;99135.91;10570824;27;20055;-81
2022/11/24 05:13:12;;;;;;;63.00;25.50;;;5.00;99.90;;;2.63;100.00;99145.53;10600362;27;20487;-80
2022/11/24 05:18:15;;;;;;;65.30;23.93;;;4.90;99.90;;;2.62;100.00;99153.56;10621842;27;20051;-81
2022/11/24 05:23:18;;;;;;;68.23;23.57;;;4.90;99.90;;;2.62;100.00;99156.19;10609534;27;20067;-81
2022/11/24 05:28:21;;;;;;;70.40;26.67;;;4.90;99.90;;;2.65;100.00;99150.66;10596145;27;20069;-81
2022/11/24 05:33:27;;;;;;;71.93;24.63;;;4.90;99.90;;;2.70;100.00;99161.56;10576613;27;20062;-81
2022/11/24 05:38:31;;;;;;;66.87;25.10;;;4.90;99.90;;;2.74;100.00;99170.78;10587935;27;20160;-81
2022/11/24 05:43:34;;;;;;;59.43;22.80;;;5.00;99.90;;;2.80;100.00;99172.84;10616462;27;20060;-81
2022/11/24 05:48:37;;;;;;;55.07;23.23;;;5.00;99.90;;;2.86;100.00;99179.31;10585368;27;20117;-80
2022/11/24 05:53:40;;;;;;;52.90;21.03;;;5.10;99.90;;;2.89;100.00;99185.09;10592351;27;20437;-80
2022/11/24 05:58:43;;;;;;;48.07;20.37;;;5.20;99.90;;;2.93;100.00;99191.69;10570293;27;20056;-81
2022/11/24 06:03:47;;;;;;;57.70;21.30;;;5.20;99.90;;;2.94;100.00;99196.00;10572325;27;20105;-81
2022/11/24 06:08:50;;;;;;;56.43;22.10;;;5.20;99.90;;;2.94;100.00;99198.63;10584487;27;20063;-81
2022/11/24 06:13:53;;;;;;;62.20;24.50;;;5.20;99.90;;;2.93;100.00;99194.31;10596700;27;20066;-81
2022/11/24 06:18:56;;;;;;;50.80;21.90;;;5.20;99.90;;;2.98;100.00;99204.41;10576427;27;20148;-81
2022/11/24 06:23:59;;;;;;;49.17;20.17;;;5.20;99.90;;;2.99;100.00;99216.53;10613915;27;20059;-81
2022/11/24 06:29:02;;;;;;;46.43;18.40;;;5.30;99.90;;;3.04;100.00;99224.00;10584038;27;20060;-87
2022/11/24 06:34:09;;;;;;;44.53;19.27;;;5.30;99.90;;;3.07;100.00;99228.97;10596759;27;20056;-86
2022/11/24 06:39:12;;;;;;;44.97;18.07;;;5.40;99.90;;;3.14;100.00;99237.91;10593996;27;20128;-86
2022/11/24 06:44:15;;;;;;;42.80;16.70;;;5.40;99.90;;;3.17;100.00;99235.00;10593003;27;20120;-85
2022/11/24 06:49:18;;;;;;;41.47;15.40;;;5.50;99.90;;;3.23;100.00;99234.41;10585547;27;20519;-85
2022/11/24 06:54:22;;;;;;;44.00;18.37;;;5.60;99.90;;;3.28;100.00;99240.06;10563163;27;20056;-85
2022/11/24 06:59:26;;;;;;;35.80;16.17;;;5.60;99.90;;;3.37;100.00;99251.53;10576365;27;20485;-86
2022/11/24 07:04:29;;;;;;;36.67;14.57;;;5.70;99.90;;;3.42;100.00;99257.16;10612415;27;20064;-86
2022/11/24 07:09:32;;;;;;;33.63;15.10;;;5.80;99.90;;;3.45;100.00;99270.00;10572881;28;20056;-85
2022/11/24 07:14:35;;;;;;;51.43;21.37;;;5.80;99.90;;;3.43;100.00;99269.31;10571752;27;20077;-85
2022/11/24 07:19:38;;;;;;;45.43;18.60;;;5.80;99.90;;;3.37;100.00;99277.78;10611713;27;20087;-85
2022/11/24 07:24:41;;;;;;;40.07;17.73;;;5.70;99.90;;;3.35;100.00;99287.56;10572105;28;20056;-84
2022/11/24 07:29:44;;;;;;;41.50;15.50;;;5.70;99.90;;;3.40;100.00;99283.56;10577334;27;20055;-84
2022/11/24 07:34:47;;;;;;;30.83;13.37;;;5.70;99.90;;;3.53;100.00;99298.97;10573675;28;20063;-84
2022/11/24 07:39:50;;;;;;;28.80;11.57;;;5.80;99.90;;;3.63;100.00;99302.41;10588163;28;20507;-84
2022/11/24 07:44:53;;;;;;;30.77;12.70;;;5.90;99.90;;;3.72;100.00;99306.78;10586539;27;20060;-84
2022/11/24 07:49:56;;;;;;;26.40;11.37;;;6.00;99.90;;;3.74;99.55;99304.84;10553377;27;20086;-84
2022/11/24 07:54:59;;;;;;;35.73;16.07;;;6.00;99.90;;;3.77;98.92;99303.72;10575727;27;20063;-84
2022/11/24 08:00:04;;;;;;;42.07;15.90;;;6.10;99.90;;;3.77;98.12;99311.59;10565505;27;20528;-84
2022/11/24 08:05:08;;;;;;;35.17;16.37;;;6.10;99.90;;;3.75;97.70;99321.44;10614484;27;20136;-84
2022/11/24 08:10:11;;;;;;;44.73;17.33;;;6.10;99.90;;;3.71;97.92;99327.94;10613114;27;20051;-83
2022/11/24 08:15:14;;;;;;;48.80;18.30;;;6.10;99.90;;;3.71;98.47;99331.41;10611379;27;20059;-83
2022/11/24 08:20:17;;;;;;;48.17;17.67;;;6.10;99.90;;;3.72;98.60;99330.44;10596691;27;20052;-83
2022/11/24 08:25:23;;;;;;;36.87;16.87;;;6.10;99.90;;;3.78;98.79;99326.41;10609470;27;20055;-83
2022/11/24 08:30:26;;;;;;;40.47;15.70;;;6.10;99.90;;;3.89;96.82;99331.44;10616568;27;20063;-83
2022/11/24 08:35:29;;;;;;;31.60;14.53;;;6.20;99.90;;;4.00;94.72;99322.53;10627250;27;20079;-84
2022/11/24 08:40:32;;;;;;;32.87;14.03;;;6.30;99.90;;;4.07;93.29;99320.97;10610482;27;20504;-84
2022/11/24 08:45:35;;;;;;;30.60;13.70;;;6.40;99.90;;;4.12;91.86;99323.16;10593393;27;20295;-84
2022/11/24 08:50:43;;;;;;;25.20;11.40;;;6.40;99.90;;;4.11;90.46;99332.84;10610177;27;20113;-83
2022/11/24 08:55:46;;;;;;;36.20;14.70;;;6.40;99.90;;;4.13;90.20;99330.91;10561484;27;20074;-84
2022/11/24 09:00:49;;;;;;;35.13;15.33;;;6.50;99.90;;;4.15;89.56;99328.97;10593426;27;20063;-83
2022/11/24 09:05:52;;;;;;;32.77;15.53;;;6.50;99.90;;;4.20;89.58;99333.78;10610830;27;20471;-83
2022/11/24 09:11:04;;;;;;;34.63;13.67;;;6.60;99.90;;;4.27;88.88;99332.22;10594170;27;20059;-82
2022/11/24 09:16:16;;;;;;;34.20;15.10;;;6.60;99.90;;;4.34;88.76;99329.81;10624262;27;20067;-83
2022/11/24 09:21:20;;;;;;;43.73;16.63;;;6.70;99.90;;;4.42;88.22;99330.72;10610100;27;20060;-83
2022/11/24 09:26:29;;;;;;;40.70;15.67;;;6.70;99.90;;;4.52;88.12;99335.91;10591688;27;20526;-83
2022/11/24 09:31:36;;;;;;;34.40;16.17;;;6.80;99.90;;;4.63;87.72;99329.59;10593181;27;20070;-83
2022/11/24 09:36:38;;;;;;;36.13;15.90;;;7.00;99.90;;;4.73;87.38;99330.31;10586229;27;20070;-83
2022/11/24 09:42:04;;;;;;;31.53;13.90;;;7.10;99.90;;;4.88;86.09;99318.28;10608201;27;20153;-83
2022/11/24 09:47:29;;;;;;;29.40;13.13;;;7.20;99.90;;;4.99;85.62;99318.06;10628819;27;20473;-81
2022/11/24 09:52:42;;;;;;;29.37;13.77;;;7.30;99.90;;;5.11;85.30;99329.16;10607520;27;20056;-83
2022/11/24 09:57:54;;;;;;;34.10;13.93;;;7.50;99.90;;;5.18;83.99;99326.75;10616574;27;20056;-81
2022/11/24 10:02:57;;;;;;;27.37;12.30;;;7.50;99.90;;;5.18;83.42;99337.28;10599665;27;20074;-82
2022/11/24 10:08:34;;;;;;;29.57;13.13;;;7.50;99.90;;;5.12;84.19;99343.16;10583487;27;20060;-83
2022/11/24 10:14:01;;;;;;;29.57;13.23;;;7.50;99.90;;;5.04;84.20;99351.81;10619144;27;20056;-83
2022/11/24 10:19:28;;;;;;;28.67;12.10;;;7.40;99.90;;;5.01;84.71;99360.00;10633722;27;20059;-83
2022/11/24 10:25:06;;;;;;;29.50;11.97;;;7.40;99.90;;;5.01;84.62;99358.22;10599343;27;20063;-83
2022/11/24 10:30:22;;;;;;;28.00;12.53;;;7.40;99.90;;;5.01;84.36;99358.22;10600632;27;20064;-83
2022/11/24 10:35:36;;;;;;;33.97;14.47;;;7.40;99.90;;;5.05;83.93;99359.56;10614675;27;20054;-83
2022/11/24 10:40:45;;;;;;;25.47;11.80;;;7.40;99.90;;;5.09;82.96;99371.44;10615504;27;20055;-83
2022/11/24 10:46:07;;;;;;;27.37;11.50;;;7.50;99.90;;;5.16;83.44;99379.56;10574481;27;20060;-83
2022/11/24 10:51:29;;;;;;;;;;;7.50;99.90;;;5.18;83.85;99389.94;10612353;27;20056;-83
2022/11/24 10:56:43;;;;;;;30.63;12.13;;;7.50;99.90;;;5.18;84.97;99396.03;10650388;27;19969;-83
2022/11/24 11:01:46;;;;;;;26.43;11.93;;;7.50;99.90;;;5.23;85.02;99403.50;10631659;27;20060;-83
2022/11/24 11:06:50;;;;;;;31.13;12.80;;;7.60;99.90;;;5.24;83.75;99402.50;10575278;27;20084;-83
2022/11/24 11:11:53;;;;;;;26.97;11.30;;;7.60;99.90;;;5.26;83.39;99405.81;10595621;27;20056;-83
2022/11/24 11:16:56;;;;;;;26.13;10.23;;;7.60;99.90;;;5.31;83.47;99406.19;10614508;27;20059;-83
2022/11/24 11:22:47;;;;;;;24.77;9.97;;;7.70;99.90;;;5.37;82.95;99410.81;10630187;27;20173;-83
2022/11/24 11:27:50;;;;;;;22.23;10.17;;;7.70;99.90;;;5.43;82.48;99410.22;10632319;27;20083;-82
2022/11/24 11:32:57;;;;;;;23.67;11.67;;;7.80;99.90;;;5.53;82.54;99416.22;10573148;27;20055;-81
2022/11/24 11:38:20;;;;;;;22.67;9.60;;;7.90;99.90;;;5.58;81.71;99416.59;10574875;28;20059;-82
2022/11/24 11:43:33;;;;;;;20.53;9.03;;;7.90;99.90;;;5.64;81.82;99421.25;10589440;27;20414;-82
2022/11/24 11:48:39;;;;;;;18.97;9.37;;;8.00;99.90;;;5.73;82.13;99434.47;10596537;27;20423;-82
2022/11/24 11:54:15;;;;;;;19.43;10.07;;;8.00;99.90;;;5.80;82.11;99435.50;10593472;27;20062;-83
2022/11/24 11:59:48;;;;;;;21.23;8.93;;;8.10;99.90;;;5.86;82.20;99437.50;10621370;27;20056;-83
2022/11/24 12:05:32;;;;;;;21.57;9.53;;;8.20;99.90;;;5.93;82.19;99435.91;10606987;27;20086;-83
2022/11/24 12:10:54;;;;;;;21.97;9.57;;;8.30;99.90;;;5.97;82.22;99439.91;10595732;27;20081;-82
2022/11/24 12:16:13;;;;;;;21.23;10.10;;;8.40;99.90;;;6.08;82.69;99436.16;10611730;27;20576;-83
2022/11/24 12:21:22;;;;;;;21.93;9.67;;;8.40;99.90;;;6.05;81.65;99428.56;10629046;27;20060;-83
2022/11/24 12:26:48;;;;;;;19.53;9.13;;;8.40;99.90;;;5.97;81.98;99432.00;10604276;27;20071;-82
2022/11/24 12:32:20;;;;;;;43.77;15.23;;;8.30;99.90;;;5.89;82.91;99426.66;10634092;27;20062;-82
2022/11/24 12:37:46;;;;;;;22.08;9.50;;;8.30;99.90;;;5.83;83.97;99446.56;10589417;27;20056;-83
2022/11/24 12:43:12;;;;;;;19.37;9.07;;;8.20;99.90;;;5.78;84.16;99450.66;10569780;27;20060;-82
2022/11/24 12:48:41;;;;;;;18.93;8.80;;;8.10;99.90;;;5.77;84.43;99452.47;10614640;27;20526;-83
2022/11/24 12:53:51;;;;;;;20.63;8.40;;;8.10;99.90;;;5.83;84.69;99445.75;10554017;28;20520;-82
2022/11/24 12:59:12;;;;;;;22.93;9.13;;;8.20;99.90;;;5.92;84.81;99452.72;10594353;27;20059;-82
2022/11/24 13:04:36;;;;;;;16.97;7.77;;;8.30;99.90;;;5.98;83.75;99453.91;10564945;27;20133;-82
2022/11/24 13:10:24;;;;;;;17.93;8.20;;;8.30;99.90;;;5.90;83.03;99444.13;10569962;28;20141;-81
2022/11/24 13:15:53;;;;;;;18.67;8.83;;;8.20;99.90;;;5.80;83.45;99448.66;10609872;27;20057;-82
2022/11/24 13:21:31;;;;;;;16.90;7.83;;;8.10;99.90;;;5.69;83.78;99460.28;10608028;27;20051;-83
2022/11/24 13:26:37;;;;;;;18.17;9.03;;;8.00;99.90;;;5.66;85.12;99449.25;10610832;27;20059;-83
2022/11/24 13:31:43;;;;;;;18.87;8.13;;;8.00;99.90;;;5.63;85.35;99459.09;10609297;27;20468;-83
2022/11/24 13:36:52;;;;;;;19.03;8.63;;;8.00;99.90;;;5.64;85.89;99468.69;10610065;27;20055;-83
2022/11/24 13:41:56;;;;;;;18.47;8.33;;;8.00;99.90;;;5.66;85.45;99479.06;10592476;27;20066;-83
2022/11/24 13:47:23;;;;;;;27.87;11.67;;;8.00;99.90;;;5.64;85.87;99491.59;10575994;28;20079;-82
2022/11/24 13:52:38;;;;;;;18.87;8.77;;;8.00;99.90;;;5.64;85.66;99492.41;10560514;27;20113;-83
2022/11/24 13:57:57;;;;;;;18.33;9.03;;;8.00;99.90;;;5.64;85.86;99500.31;10627068;27;20091;-83
2022/11/24 14:03:20;;;;;;;17.47;7.70;;;8.00;99.90;;;5.64;85.75;99523.22;10627131;27;20565;-83
2022/11/24 14:08:29;;;;;;;16.93;7.87;;;8.00;99.90;;;5.63;85.80;99517.09;10627805;27;20160;-83
2022/11/24 14:13:32;;;;;;;16.63;7.90;;;8.00;99.90;;;5.62;85.88;99525.16;10559140;28;20064;-83
2022/11/24 14:18:38;;;;;;;18.57;8.30;;;8.00;99.90;;;5.59;85.73;99525.47;10567811;28;20052;-82
2022/11/24 14:24:30;;;;;;;18.10;8.10;;;8.00;99.90;;;5.55;86.00;99524.94;10570050;28;20507;-82
2022/11/24 14:30:02;;;;;;;15.47;7.97;;;7.90;99.90;;;5.48;85.84;99517.81;10621442;27;20060;-82
2022/11/24 14:35:27;;;;;;;18.30;8.30;;;7.80;99.90;;;5.43;86.08;99526.16;10606447;27;20411;-82
2022/11/24 14:40:54;;;;;;;20.63;8.77;;;7.80;99.90;;;5.39;86.15;99530.06;10589261;27;20060;-83
2022/11/24 14:46:08;;;;;;;19.07;8.90;;;7.70;99.90;;;5.35;86.52;99529.53;10590679;27;20063;-83
2022/11/24 14:51:31;;;;;;;19.37;8.60;;;7.70;99.90;;;5.32;86.55;99534.28;10598649;27;20056;-82
2022/11/24 14:56:36;;;;;;;18.83;8.40;;;7.60;99.90;;;5.26;86.91;99535.69;10614263;27;20052;-83
2022/11/24 15:01:39;;;;;;;21.57;9.13;;;7.60;99.90;;;5.23;87.01;99545.72;10615239;27;20411;-83
2022/11/24 15:07:25;;;;;;;20.33;9.40;;;7.60;99.90;;;5.22;87.59;99559.88;10589072;27;20062;-83
2022/11/24 15:12:39;;;;;;;18.17;8.30;;;7.50;99.90;;;5.17;87.75;99560.31;10577198;27;20495;-82
2022/11/24 15:17:58;;;;;;;20.47;9.27;;;7.50;99.90;;;5.15;88.50;99566.69;10629537;27;20060;-83
2022/11/24 15:23:22;;;;;;;23.07;9.73;;;7.50;99.90;;;5.13;88.76;99569.50;10589748;27;20490;-80
2022/11/24 15:28:26;;;;;;;21.07;10.17;;;7.50;99.90;;;5.13;88.80;99572.13;10623880;27;20051;-80
2022/11/24 15:33:29;;;;;;;20.60;10.77;;;7.50;99.90;;;5.07;89.10;99573.53;10593150;27;20056;-81
2022/11/24 15:38:32;;;;;;;24.67;11.33;;;7.40;99.90;;;4.99;89.29;99570.00;10560060;27;20140;-82
2022/11/24 15:43:39;;;;;;;21.50;10.93;;;7.40;99.90;;;4.89;89.55;99587.66;10611921;27;20055;-82
2022/11/24 15:48:42;;;;;;;73.13;31.70;;;7.30;99.90;;;4.78;89.66;99593.94;10599087;27;20060;-82
2022/11/24 15:53:52;;;;;;;23.77;11.93;;;7.20;99.90;;;4.71;90.02;99592.84;10606207;27;20055;-81
2022/11/24 15:59:03;;;;;;;21.47;10.07;;;7.10;99.90;;;4.65;89.76;99601.31;10594558;27;20146;-81
2022/11/24 16:04:06;;;;;;;23.53;9.77;;;7.00;99.90;;;4.61;89.74;99600.78;10597210;27;20056;-81
2022/11/24 16:09:15;;;;;;;21.20;8.67;;;6.90;99.90;;;4.56;89.83;99610.94;10576445;27;20064;-81
2022/11/24 16:14:18;;;;;;;19.80;9.07;;;6.90;99.90;;;4.54;90.47;99618.13;10612214;27;20060;-81
2022/11/24 16:19:21;;;;;;;17.90;8.43;;;6.90;99.90;;;4.53;90.62;99624.34;10600401;27;20084;-81
2022/11/24 16:24:24;;;;;;;22.63;10.10;;;6.80;99.90;;;4.46;90.87;99621.47;10620181;27;20098;-81
2022/11/24 16:29:27;;;;;;;23.13;9.23;;;6.80;99.90;;;4.38;91.31;99634.53;10601389;27;20062;-81
2022/11/24 16:34:30;;;;;;;21.40;9.03;;;6.70;99.90;;;4.33;91.62;99634.09;10582831;27;20482;-81
2022/11/24 16:39:36;;;;;;;29.17;12.07;;;6.70;99.90;;;4.27;92.10;99643.38;10578283;27;20125;-81
2022/11/24 16:44:39;;;;;;;23.20;10.87;;;6.60;99.90;;;4.15;92.51;99648.94;10618351;27;20121;-81
2022/11/24 16:49:42;;;;;;;24.50;10.60;;;6.50;99.90;;;4.05;93.17;99653.38;10584977;27;20137;-80
2022/11/24 16:54:46;;;;;;;20.50;10.10;;;6.40;99.90;;;4.01;93.93;99668.59;10588081;27;20077;-81
2022/11/24 16:59:49;;;;;;;26.27;10.80;;;6.30;99.90;;;4.00;94.04;99672.19;10579690;27;20151;-81
2022/11/24 17:04:52;;;;;;;24.70;10.93;;;6.30;99.90;;;3.96;94.17;99669.03;10590755;27;20503;-81
2022/11/24 17:09:55;;;;;;;25.33;11.10;;;6.30;99.90;;;3.89;94.51;99670.53;10597809;27;20063;-81
2022/11/24 17:14:58;;;;;;;30.90;11.60;;;6.20;99.90;;;3.87;94.57;99676.91;10642723;27;20051;-81
2022/11/24 17:20:21;;;;;;;22.57;10.70;;;6.20;99.90;;;3.85;94.68;99679.66;10588950;27;20112;-81
2022/11/24 17:25:24;;;;;;;22.10;9.30;;;6.20;99.90;;;3.79;94.48;99684.66;10624036;27;20129;-81
2022/11/24 17:30:27;;;;;;;30.40;9.90;;;6.10;99.90;;;3.72;94.36;99694.88;10627792;27;20109;-81
2022/11/24 17:35:33;;;;;;;21.13;9.33;;;6.10;99.90;;;3.70;93.91;99696.78;10605658;27;20055;-81
2022/11/24 17:40:36;;;;;;;22.23;9.63;;;6.00;99.90;;;3.70;93.54;99697.63;10587694;27;20446;-81
2022/11/24 17:45:38;;;;;;;26.17;10.57;;;6.00;99.90;;;3.67;93.38;99708.41;10607752;27;20143;-81
2022/11/24 17:50:42;;;;;;;21.77;10.40;;;6.00;99.90;;;3.67;93.08;99712.84;10590584;27;20515;-81
2022/11/24 17:55:46;;;;;;;24.33;10.97;;;6.00;99.90;;;3.63;93.22;99719.34;10575945;27;20059;-81
2022/11/24 18:00:50;;;;;;;22.13;10.13;;;6.00;99.90;;;3.63;93.14;99727.22;10568210;27;20059;-81
2022/11/24 18:05:54;;;;;;;29.70;12.13;;;5.90;99.90;;;3.68;92.70;99727.66;10607314;27;20515;-81
2022/11/24 18:11:20;;;;;;;31.73;15.73;;;6.00;99.90;;;3.67;92.35;99747.84;10615396;27;20060;-81
2022/11/24 18:16:33;;;;;;;27.40;11.73;;;6.00;99.90;;;3.61;92.50;99744.91;10613090;27;20109;-81
2022/11/24 18:21:43;;;;;;;30.83;13.00;;;5.90;99.90;;;3.56;92.56;99749.75;10579200;27;20059;-81
2022/11/24 18:26:47;;;;;;;26.80;11.90;;;5.90;99.90;;;3.49;92.91;99763.41;10586704;27;20063;-82
2022/11/24 18:31:49;;;;;;;25.73;11.00;;;5.80;99.90;;;3.42;93.17;99767.53;10598086;27;20064;-82
2022/11/24 18:36:53;;;;;;;25.93;11.80;;;5.80;99.90;;;3.31;93.72;99774.69;10578708;27;20105;-84
2022/11/24 18:41:55;;;;;;;23.90;10.17;;;5.70;99.90;;;3.23;93.92;99780.56;10615365;27;20431;-82
2022/11/24 18:46:58;;;;;;;25.07;11.17;;;5.60;99.90;;;3.17;94.16;99786.34;10612378;27;20085;-82
2022/11/24 18:52:01;;;;;;;23.33;10.33;;;5.50;99.90;;;3.18;94.34;99793.28;10592259;27;20067;-82
2022/11/24 18:57:04;;;;;;;18.27;9.10;;;5.50;99.90;;;3.16;94.51;99801.25;10601635;27;20515;-82
2022/11/24 19:02:09;;;;;;;25.67;10.60;;;5.50;99.90;;;3.14;94.89;99794.50;10565313;27;20063;-82
2022/11/24 19:07:15;;;;;;;24.47;11.00;;;5.50;99.90;;;3.13;94.97;99796.28;10589885;27;20063;-82
2022/11/24 19:12:18;;;;;;;27.17;13.63;;;5.50;99.90;;;3.16;94.78;99798.63;10613898;27;20132;-81
2022/11/24 19:17:21;;;;;;;23.73;10.57;;;5.50;99.90;;;3.18;94.57;99807.25;10594980;27;20066;-82
2022/11/24 19:22:24;;;;;;;21.83;9.00;;;5.50;99.90;;;3.18;94.17;99809.88;10612689;27;20051;-81
2022/11/24 19:27:28;;;;;;;29.23;10.97;;;5.50;99.90;;;3.23;94.18;99830.47;10597038;27;20062;-81
2022/11/24 19:32:31;;;;;;;21.33;9.70;;;5.60;99.90;;;3.20;94.05;99835.97;10597537;27;20078;-82
2022/11/24 19:37:34;;;;;;;25.70;11.17;;;5.60;99.90;;;3.19;94.19;99839.56;10632423;27;20059;-82
2022/11/24 19:42:37;;;;;;;26.47;11.63;;;5.60;99.90;;;3.11;94.13;99847.25;10584761;27;20151;-81
2022/11/24 19:47:40;;;;;;;24.87;10.70;;;5.50;99.90;;;3.01;94.47;99849.00;10600225;27;20063;-81
2022/11/24 19:52:43;;;;;;;25.23;11.20;;;5.40;99.90;;;2.86;94.75;99849.28;10643891;27;20062;-81
2022/11/24 19:57:46;;;;;;;21.37;10.03;;;5.30;99.90;;;2.77;95.50;99860.56;10592789;27;20055;-81
2022/11/24 20:02:49;;;;;;;22.93;10.73;;;5.20;99.90;;;2.81;96.23;99866.38;10584139;27;20086;-82
2022/11/24 20:07:53;;;;;;;27.87;11.43;;;5.20;99.90;;;2.79;96.19;99863.88;10594492;27;20507;-81
2022/11/24 20:12:56;;;;;;;24.10;10.97;;;5.10;99.90;;;2.81;96.63;99864.56;10598639;27;20067;-81
2022/11/24 20:17:59;;;;;;;20.67;9.87;;;5.20;99.90;;;2.86;96.59;99874.72;10593079;27;20114;-81
2022/11/24 20:23:02;;;;;;;26.03;11.47;;;5.20;99.90;;;2.89;96.75;99880.53;10607554;27;20067;-82
2022/11/24 20:28:05;;;;;;;23.00;10.73;;;5.20;99.90;;;2.88;97.01;99884.13;10610478;27;20166;-81
2022/11/24 20:33:08;;;;;;;23.57;10.70;;;5.20;99.90;;;2.98;97.25;99891.22;10582480;27;20426;-81
2022/11/24 20:38:11;;;;;;;19.47;10.17;;;5.30;99.90;;;3.03;97.15;99899.56;10572672;27;20522;-81
2022/11/24 20:43:14;;;;;;;28.03;10.80;;;5.30;99.90;;;3.14;97.35;99899.50;10594538;27;20130;-81
2022/11/24 20:48:17;;;;;;;25.17;11.27;;;5.40;99.90;;;3.22;97.10;99899.69;10587274;27;20056;-81
2022/11/24 20:53:20;;;;;;;23.87;10.90;;;5.50;99.90;;;3.27;96.75;99902.78;10593997;27;20134;-81
2022/11/24 20:58:23;;;;;;;23.47;10.70;;;5.60;99.90;;;3.25;96.78;99906.50;10594089;27;20062;-81
2022/11/24 21:03:26;;;;;;;20.60;9.77;;;5.60;99.90;;;3.27;96.80;99901.94;10575519;27;20063;-81
2022/11/24 21:08:34;;;;;;;29.40;11.13;;;5.50;99.90;;;3.31;96.59;99912.06;10596584;27;20056;-81
2022/11/24 21:13:42;;;;;;;24.50;11.70;;;5.60;99.90;;;3.35;96.42;99902.94;10615617;27;20082;-81
2022/11/24 21:18:51;;;;;;;27.17;12.93;;;5.60;99.90;;;3.40;96.68;99911.28;10597692;27;20509;-81
2022/11/24 21:23:54;;;;;;;26.73;12.87;;;5.60;99.90;;;3.40;96.64;99921.78;10593039;27;20055;-82
2022/11/24 21:28:57;;;;;;;26.00;13.60;;;5.70;99.90;;;3.36;96.79;99930.03;10596177;27;20058;-82